Time;durP1;ratioP1;P1;durP2;ratioP2;P2;SDS_P1;SDS_P2;PMS_P1;PMS_P2;Temp;Humidity;BMP_temperature;BMP_pressure;BME280_temperature;BME280_humidity;BME280_pressure;Samples;Min_cycle;Max_cycle;Signal;HPM_P1;HPM_P2
2024/01/11 00:00:40;;;;;;;46.73;25.00;;;-2.50;99.90;;;;;;5023785;28;20212;-46
2024/01/11 00:03:06;;;;;;;53.97;28.33;;;-2.40;99.90;;;;;;5014493;28;20195;-45
2024/01/11 00:05:32;;;;;;;46.30;26.57;;;-2.40;99.90;;;;;;5018448;28;20663;-41
2024/01/11 00:07:58;;;;;;;56.40;30.20;;;-2.40;99.90;;;;;;5023692;28;20195;-47
2024/01/11 00:10:24;;;;;;;50.77;27.63;;;-2.40;99.90;;;;;;5023053;28;20616;-41
2024/01/11 00:12:50;;;;;;;49.80;27.77;;;-2.40;99.90;;;;;;5023288;28;20195;-45
2024/01/11 00:15:15;;;;;;;49.00;26.70;;;-2.40;99.90;;;;;;5017513;28;20671;-44
2024/01/11 00:17:41;;;;;;;54.10;28.17;;;-2.40;99.90;;;;;;5023222;28;20196;-45
2024/01/11 00:20:08;;;;;;;53.97;28.77;;;-2.40;99.90;;;;;;5023515;28;20239;-49
2024/01/11 00:22:34;;;;;;;51.73;28.23;;;-2.40;99.90;;;;;;5023216;28;20435;-46
2024/01/11 00:25:00;;;;;;;51.77;27.17;;;-2.40;99.90;;;;;;5000573;28;20714;-46
2024/01/11 00:27:26;;;;;;;53.80;26.15;;;-2.40;99.90;;;;;;5021859;28;20238;-47
2024/01/11 00:29:53;;;;;;;59.13;30.50;;;-2.50;99.90;;;;;;5022643;28;20199;-53
2024/01/11 00:32:21;;;;;;;55.00;29.33;;;-2.50;99.90;;;;;;5022955;28;20187;-46
2024/01/11 00:34:47;;;;;;;51.50;29.07;;;-2.50;99.90;;;;;;5022608;28;20196;-46
2024/01/11 00:37:13;;;;;;;53.50;28.93;;;-2.50;99.90;;;;;;5022940;28;20195;-45
2024/01/11 00:39:39;;;;;;;53.93;27.73;;;-2.50;99.90;;;;;;5022678;28;20192;-42
2024/01/11 00:42:05;;;;;;;54.20;29.70;;;-2.50;99.90;;;;;;5015397;28;20188;-46
2024/01/11 00:44:31;;;;;;;56.17;28.93;;;-2.50;99.90;;;;;;5022650;28;20196;-48
2024/01/11 00:46:57;;;;;;;55.97;29.97;;;-2.50;99.90;;;;;;5022228;28;20227;-47
2024/01/11 00:49:22;;;;;;;58.10;28.77;;;-2.50;99.90;;;;;;5022730;28;20187;-45
2024/01/11 00:51:48;;;;;;;57.00;30.00;;;-2.50;99.90;;;;;;5022507;28;20285;-47
2024/01/11 00:54:14;;;;;;;55.00;28.67;;;-2.50;99.90;;;;;;5022846;28;20648;-46
2024/01/11 00:56:40;;;;;;;58.67;32.53;;;-2.50;99.90;;;;;;5022565;28;20199;-45
2024/01/11 00:59:06;;;;;;;58.47;29.17;;;-2.50;99.90;;;;;;5021872;28;20194;-45
2024/01/11 01:01:32;;;;;;;60.90;32.07;;;-2.50;99.90;;;;;;5022259;28;20212;-48
2024/01/11 01:03:58;;;;;;;60.20;32.50;;;-2.50;99.90;;;;;;5021706;28;20188;-46
2024/01/11 01:06:24;;;;;;;62.47;33.37;;;-2.50;99.90;;;;;;5021814;28;20259;-51
2024/01/11 01:08:50;;;;;;;63.10;31.37;;;-2.50;99.90;;;;;;5019059;28;21069;-45
2024/01/11 01:11:16;;;;;;;63.07;31.63;;;-2.50;99.90;;;;;;5021504;28;20254;-45
2024/01/11 01:13:42;;;;;;;62.47;33.53;;;-2.50;99.90;;;;;;5022161;28;20279;-46
2024/01/11 01:16:08;;;;;;;63.53;32.47;;;-2.50;99.90;;;;;;5015995;28;20195;-47
2024/01/11 01:18:34;;;;;;;61.30;32.97;;;-2.50;99.90;;;;;;5021887;28;20254;-50
2024/01/11 01:21:00;;;;;;;59.93;32.67;;;-2.50;99.90;;;;;;5000174;28;20269;-44
2024/01/11 01:23:25;;;;;;;63.93;33.83;;;-2.50;99.90;;;;;;5022262;28;20180;-47
2024/01/11 01:25:51;;;;;;;60.73;32.43;;;-2.50;99.90;;;;;;5021997;28;20184;-41
2024/01/11 01:28:17;;;;;;;66.73;34.50;;;-2.50;99.90;;;;;;5021625;28;20187;-54
2024/01/11 01:30:43;;;;;;;62.77;30.60;;;-2.50;99.90;;;;;;5022183;28;20192;-44
2024/01/11 01:33:09;;;;;;;64.13;35.27;;;-2.50;99.90;;;;;;5021839;28;20188;-47
2024/01/11 01:35:35;;;;;;;61.47;32.07;;;-2.50;99.90;;;;;;5021733;28;20279;-52
2024/01/11 01:38:02;;;;;;;67.33;34.27;;;-2.50;99.90;;;;;;5021689;28;20532;-42
2024/01/11 01:40:30;;;;;;;66.77;33.47;;;-2.50;99.90;;;;;;5021725;28;20218;-49
2024/01/11 01:43:02;;;;;;;63.57;32.17;;;-2.50;99.90;;;;;;5021486;28;20250;-43
2024/01/11 01:45:28;;;;;;;60.23;31.50;;;-2.50;99.90;;;;;;5021319;28;20206;-46
2024/01/11 01:47:55;;;;;;;65.27;34.07;;;-2.50;99.90;;;;;;5021689;28;20188;-40
2024/01/11 01:50:21;;;;;;;64.90;34.63;;;-2.50;99.90;;;;;;5021109;28;20698;-42
2024/01/11 01:52:48;;;;;;;66.93;33.67;;;-2.50;99.90;;;;;;5021557;28;20250;-47
2024/01/11 01:55:16;;;;;;;67.13;33.97;;;-2.40;99.90;;;;;;5021157;28;20195;-47
2024/01/11 01:57:43;;;;;;;64.70;33.23;;;-2.40;99.90;;;;;;5021281;28;20196;-44
2024/01/11 02:00:11;;;;;;;64.37;33.73;;;-2.40;99.90;;;;;;5021216;28;20225;-45
2024/01/11 02:02:42;;;;;;;68.53;35.67;;;-2.40;99.90;;;;;;5015489;28;20449;-46
2024/01/11 02:05:11;;;;;;;68.23;34.30;;;-2.40;99.90;;;;;;5021039;28;20197;-49
2024/01/11 02:07:37;;;;;;;70.00;33.77;;;-2.40;99.90;;;;;;5021218;28;20192;-50
2024/01/11 02:10:03;;;;;;;65.17;32.83;;;-2.40;99.90;;;;;;5021029;28;20192;-49
2024/01/11 02:12:29;;;;;;;67.40;34.33;;;-2.40;99.90;;;;;;5020601;28;20192;-48
2024/01/11 02:14:55;;;;;;;69.03;35.17;;;-2.40;99.90;;;;;;5015630;28;20192;-49
2024/01/11 02:17:21;;;;;;;64.30;33.60;;;-2.40;99.90;;;;;;4998789;28;20184;-48
2024/01/11 02:19:47;;;;;;;67.57;30.20;;;-2.40;99.90;;;;;;5020895;28;20263;-49
2024/01/11 02:22:21;;;;;;;65.97;31.33;;;-2.30;99.90;;;;;;5021209;28;20581;-46
2024/01/11 02:24:47;;;;;;;66.50;34.90;;;-2.40;99.90;;;;;;5020700;28;20199;-47
2024/01/11 02:27:13;;;;;;;67.30;33.53;;;-2.40;99.90;;;;;;5021053;28;20183;-42
2024/01/11 02:29:39;;;;;;;64.70;34.43;;;-2.40;99.90;;;;;;5021452;28;20211;-47
2024/01/11 02:32:06;;;;;;;69.60;33.27;;;-2.40;99.90;;;;;;5014556;28;20299;-44
2024/01/11 02:34:33;;;;;;;65.07;34.93;;;-2.40;99.90;;;;;;5021209;28;20211;-45
2024/01/11 02:36:59;;;;;;;70.50;35.47;;;-2.40;99.90;;;;;;5020940;28;20184;-47
2024/01/11 02:39:25;;;;;;;66.13;32.97;;;-2.40;99.90;;;;;;5020641;28;20203;-50
2024/01/11 02:41:55;;;;;;;63.10;31.40;;;-2.40;99.90;;;;;;5020967;28;20250;-45
2024/01/11 02:44:21;;;;;;;67.13;33.63;;;-2.40;99.90;;;;;;5001326;28;20302;-41
2024/01/11 02:46:47;;;;;;;68.60;33.67;;;-2.40;99.90;;;;;;5020880;28;20284;-44
2024/01/11 02:49:13;;;;;;;64.77;34.47;;;-2.40;99.90;;;;;;5013747;28;21310;-44
2024/01/11 02:51:39;;;;;;;65.63;35.13;;;-2.40;99.90;;;;;;5020989;28;20730;-43
2024/01/11 02:54:05;;;;;;;68.57;34.43;;;-2.40;99.90;;;;;;5016443;28;20210;-46
2024/01/11 02:56:32;;;;;;;67.43;32.33;;;-2.40;99.90;;;;;;5016581;28;20195;-47
2024/01/11 02:58:57;;;;;;;66.83;34.63;;;-2.40;99.90;;;;;;5020807;28;20262;-43
2024/01/11 03:01:23;;;;;;;69.53;33.07;;;-2.40;99.90;;;;;;5020697;28;20211;-49
2024/01/11 03:03:49;;;;;;;65.30;34.57;;;-2.40;99.90;;;;;;5020730;28;20188;-47
2024/01/11 03:06:17;;;;;;;68.97;35.37;;;-2.40;99.90;;;;;;5020671;28;20191;-45
2024/01/11 03:08:43;;;;;;;69.50;32.97;;;-2.40;99.90;;;;;;5020395;28;20822;-45
2024/01/11 03:11:09;;;;;;;64.90;33.50;;;-2.40;99.90;;;;;;5020895;28;20218;-45
2024/01/11 03:13:35;;;;;;;71.57;34.67;;;-2.40;99.90;;;;;;5015121;28;20224;-47
2024/01/11 03:16:01;;;;;;;71.33;34.87;;;-2.40;99.90;;;;;;5021044;28;20222;-46
2024/01/11 03:18:27;;;;;;;65.83;35.03;;;-2.30;99.90;;;;;;5020268;28;20188;-44
2024/01/11 03:20:53;;;;;;;71.87;35.77;;;-2.30;99.90;;;;;;5020760;28;20208;-49
2024/01/11 03:23:19;;;;;;;68.07;34.40;;;-2.30;99.90;;;;;;5023430;28;20242;-43
2024/01/11 03:25:44;;;;;;;67.10;34.37;;;-2.20;99.90;;;;;;5024630;28;20377;-49
2024/01/11 03:28:10;;;;;;;71.43;35.50;;;-2.10;99.90;;;;;;5024172;28;20295;-43
2024/01/11 03:30:36;;;;;;;70.33;36.30;;;-2.00;99.90;;;;;;5024022;28;20196;-45
2024/01/11 03:33:02;;;;;;;67.23;35.63;;;-2.00;99.90;;;;;;5023872;28;20192;-40
2024/01/11 03:35:28;;;;;;;65.23;34.60;;;-2.00;99.90;;;;;;5023581;28;20199;-45
2024/01/11 03:37:54;;;;;;;67.30;34.30;;;-1.90;99.90;;;;;;5024033;28;20195;-46
2024/01/11 03:40:20;;;;;;;68.20;32.90;;;-1.80;99.90;;;;;;5024047;28;20216;-44
2024/01/11 03:42:45;;;;;;;65.17;33.43;;;-1.80;99.90;;;;;;5024006;28;20290;-51
2024/01/11 03:45:11;;;;;;;68.27;34.73;;;-1.80;99.90;;;;;;5023347;28;20191;-49
2024/01/11 03:47:37;;;;;;;63.43;33.17;;;-1.70;99.90;;;;;;5016282;28;20656;-47
2024/01/11 03:50:04;;;;;;;64.70;33.03;;;-1.70;99.90;;;;;;5023689;28;20203;-45
2024/01/11 03:52:30;;;;;;;68.57;34.20;;;-1.60;99.90;;;;;;5022393;28;20235;-50
2024/01/11 03:54:56;;;;;;;61.42;34.38;;;-1.50;99.90;;;;;;5017441;28;20226;-50
2024/01/11 03:57:22;;;;;;;64.07;34.53;;;-1.50;99.90;;;;;;5023604;28;20188;-49
2024/01/11 03:59:47;;;;;;;66.33;32.87;;;-1.50;99.90;;;;;;5023511;28;20199;-43
2024/01/11 04:02:14;;;;;;;63.72;33.78;;;-1.40;99.90;;;;;;5023675;28;20184;-51
2024/01/11 04:04:41;;;;;;;65.50;34.93;;;-1.30;99.90;;;;;;5018467;28;20196;-46
2024/01/11 04:07:07;;;;;;;65.05;32.95;;;-1.30;99.90;;;;;;5023105;28;20191;-40
2024/01/11 04:09:32;;;;;;;57.23;31.57;;;-1.30;99.90;;;;;;5019524;28;20628;-47
2024/01/11 04:11:58;;;;;;;59.08;31.70;;;-1.30;99.90;;;;;;5020839;28;20196;-40
2024/01/11 04:14:24;;;;;;;59.67;33.27;;;-1.10;99.90;;;;;;5019487;28;20326;-42
2024/01/11 04:16:50;;;;;;;62.40;34.05;;;-1.10;99.90;;;;;;5023017;28;20196;-43
2024/01/11 04:19:16;;;;;;;57.57;33.03;;;-1.00;99.90;;;;;;5018815;28;20664;-41
2024/01/11 04:21:42;;;;;;;61.97;31.83;;;-0.90;99.90;;;;;;5023216;28;20264;-47
2024/01/11 04:24:08;;;;;;;61.38;32.08;;;-0.90;99.90;;;;;;5018093;28;20568;-44
2024/01/11 04:26:34;;;;;;;62.87;32.00;;;-0.80;99.90;;;;;;5023080;28;20191;-47
2024/01/11 04:29:00;;;;;;;58.47;31.20;;;-0.70;99.90;;;;;;5023182;28;20547;-40
2024/01/11 04:31:28;;;;;;;55.42;30.75;;;-0.70;99.90;;;;;;5022768;28;20199;-47
2024/01/11 04:33:54;;;;;;;56.35;29.15;;;-0.60;99.90;;;;;;5022660;28;20578;-45
2024/01/11 04:36:20;;;;;;;53.45;30.17;;;-0.50;99.90;;;;;;5022815;28;20184;-50
2024/01/11 04:38:46;;;;;;;51.38;29.40;;;-0.50;99.90;;;;;;5018746;28;20188;-50
2024/01/11 04:41:13;;;;;;;55.15;30.77;;;-0.40;99.90;;;;;;5017812;28;20207;-43
2024/01/11 04:43:43;;;;;;;54.28;30.77;;;-0.40;99.90;;;;;;5023117;28;20198;-44
2024/01/11 04:46:16;;;;;;;56.25;31.50;;;-0.30;99.90;;;;;;5022622;28;20188;-47
2024/01/11 04:48:42;;;;;;;53.85;29.35;;;-0.20;99.90;;;;;;5023184;28;20533;-49
2024/01/11 04:51:08;;;;;;;58.20;31.38;;;-0.20;99.90;;;;;;5022455;28;20231;-40
2024/01/11 04:53:41;;;;;;;49.90;28.48;;;-0.20;99.90;;;;;;5022809;28;20203;-41
2024/01/11 04:56:08;;;;;;;53.05;29.27;;;-0.20;99.90;;;;;;5022625;28;20875;-44
2024/01/11 04:58:41;;;;;;;56.35;30.17;;;-0.20;99.90;;;;;;5022332;28;20188;-48
2024/01/11 05:01:07;;;;;;;54.03;30.95;;;-0.20;99.90;;;;;;5022256;28;21053;-48
2024/01/11 05:03:33;;;;;;;53.83;31.13;;;-0.10;99.90;;;;;;5000868;28;20278;-45
2024/01/11 05:05:59;;;;;;;54.95;30.63;;;-0.10;99.90;;;;;;5021875;28;20180;-44
2024/01/11 05:08:27;;;;;;;53.97;30.17;;;-0.10;99.90;;;;;;5022330;28;20562;-40
2024/01/11 05:10:53;;;;;;;57.10;30.42;;;0.00;99.90;;;;;;5022303;28;20279;-47
2024/01/11 05:13:19;;;;;;;56.08;30.70;;;0.00;99.90;;;;;;5021792;28;20894;-45
2024/01/11 05:15:46;;;;;;;49.92;29.20;;;0.10;99.90;;;;;;5019583;28;20202;-45
2024/01/11 05:18:12;;;;;;;56.08;30.60;;;0.10;99.90;;;;;;5017467;28;20217;-50
2024/01/11 05:20:38;;;;;;;55.63;30.88;;;0.10;99.90;;;;;;5021584;28;20214;-46
2024/01/11 05:23:05;;;;;;;53.67;29.88;;;0.10;99.90;;;;;;5014706;28;20196;-48
2024/01/11 05:25:33;;;;;;;51.20;29.17;;;0.20;99.90;;;;;;5022010;28;20211;-47
2024/01/11 05:28:00;;;;;;;50.25;28.42;;;0.20;99.90;;;;;;5021775;28;20188;-47
2024/01/11 05:30:26;;;;;;;50.47;29.85;;;0.20;99.90;;;;;;5017220;28;20275;-44
2024/01/11 05:32:52;;;;;;;53.33;29.13;;;0.20;99.90;;;;;;5021606;28;20195;-46
2024/01/11 05:35:18;;;;;;;52.15;28.13;;;0.20;99.90;;;;;;5020187;28;20196;-47
2024/01/11 05:37:43;;;;;;;52.25;28.20;;;0.20;99.90;;;;;;5021920;28;20278;-48
2024/01/11 05:40:09;;;;;;;49.65;27.17;;;0.30;99.90;;;;;;5021643;28;20404;-45
2024/01/11 05:42:35;;;;;;;51.78;28.88;;;0.30;99.90;;;;;;5021577;28;20254;-44
2024/01/11 05:45:01;;;;;;;51.05;29.10;;;0.40;99.90;;;;;;5020527;28;20215;-48
2024/01/11 05:47:27;;;;;;;51.03;27.67;;;0.40;99.90;;;;;;5021750;28;20190;-47
2024/01/11 05:49:53;;;;;;;48.00;28.20;;;0.50;99.90;;;;;;5002310;28;20275;-48
2024/01/11 05:52:19;;;;;;;51.38;29.95;;;0.50;99.90;;;;;;5021363;28;20228;-43
2024/01/11 05:54:45;;;;;;;53.22;28.63;;;0.60;99.90;;;;;;5016008;28;20191;-41
2024/01/11 05:57:11;;;;;;;49.25;27.67;;;0.70;99.90;;;;;;5021545;28;20237;-44
2024/01/11 05:59:37;;;;;;;51.15;29.02;;;0.70;99.90;;;;;;5020858;28;20543;-48
2024/01/11 06:02:03;;;;;;;51.28;28.00;;;0.80;99.90;;;;;;5021060;28;20207;-44
2024/01/11 06:04:29;;;;;;;46.38;26.50;;;0.80;99.90;;;;;;5021412;28;20203;-44
2024/01/11 06:06:55;;;;;;;52.30;29.02;;;0.90;99.90;;;;;;5021329;28;20687;-46
2024/01/11 06:09:21;;;;;;;48.60;28.10;;;0.90;99.90;;;;;;5021238;28;20215;-48
2024/01/11 06:11:47;;;;;;;51.53;29.42;;;1.00;99.90;;;;;;5021367;28;20572;-46
2024/01/11 06:14:13;;;;;;;48.33;28.25;;;1.00;99.90;;;;;;5020555;28;20215;-47
2024/01/11 06:16:40;;;;;;;46.00;26.88;;;1.00;99.90;;;;;;5021086;28;20609;-47
2024/01/11 06:19:07;;;;;;;47.03;26.63;;;1.00;99.90;;;;;;5021231;28;20188;-48
2024/01/11 06:21:33;;;;;;;49.40;27.80;;;1.00;99.90;;;;;;5020882;28;20207;-48
2024/01/11 06:23:59;;;;;;;48.33;27.63;;;1.00;99.90;;;;;;5021180;28;20184;-46
2024/01/11 06:26:25;;;;;;;50.83;27.95;;;1.10;99.90;;;;;;5020378;28;20195;-48
2024/01/11 06:28:51;;;;;;;44.50;24.38;;;1.10;99.90;;;;;;5033090;28;20188;-48
2024/01/11 06:31:17;;;;;;;46.47;25.70;;;1.10;99.90;;;;;;5020624;28;20191;-45
2024/01/11 06:33:43;;;;;;;46.28;26.55;;;1.20;99.90;;;;;;4998734;28;20194;-41
2024/01/11 06:36:09;;;;;;;46.85;27.33;;;1.20;99.90;;;;;;5020973;28;20187;-45
2024/01/11 06:38:35;;;;;;;46.38;26.65;;;1.30;99.90;;;;;;5020533;28;20215;-41
2024/01/11 06:41:01;;;;;;;47.20;31.23;;;1.20;99.90;;;;;;5019871;28;20455;-46
2024/01/11 06:43:27;;;;;;;40.30;23.73;;;1.40;99.90;;;;;;5020407;28;20206;-47
2024/01/11 06:45:53;;;;;;;38.33;22.15;;;1.40;99.90;;;;;;5020532;28;20785;-46
2024/01/11 06:48:19;;;;;;;38.65;20.30;;;1.40;99.90;;;;;;5018661;28;20210;-44
2024/01/11 06:50:45;;;;;;;45.17;25.88;;;1.50;99.90;;;;;;5020102;28;20223;-50
2024/01/11 06:53:11;;;;;;;43.30;25.38;;;1.50;99.90;;;;;;5020097;28;20194;-47
2024/01/11 06:55:37;;;;;;;45.53;25.70;;;1.60;99.90;;;;;;5020922;28;20648;-47
2024/01/11 06:58:03;;;;;;;42.83;24.90;;;1.60;99.90;;;;;;5024464;28;20196;-49
2024/01/11 07:00:29;;;;;;;42.25;24.88;;;1.60;99.90;;;;;;5024834;28;20211;-45
2024/01/11 07:02:55;;;;;;;42.35;24.88;;;1.70;99.90;;;;;;5023994;28;20199;-44
2024/01/11 07:05:21;;;;;;;39.38;23.75;;;1.70;99.90;;;;;;5024648;28;20558;-45
2024/01/11 07:07:47;;;;;;;42.80;24.38;;;1.70;99.90;;;;;;5024040;28;20199;-45
2024/01/11 07:10:13;;;;;;;41.30;24.42;;;1.70;99.90;;;;;;5018166;28;20210;-48
2024/01/11 07:12:41;;;;;;;43.83;24.58;;;1.80;99.90;;;;;;5024151;28;20218;-43
2024/01/11 07:15:07;;;;;;;40.92;24.15;;;1.80;99.90;;;;;;5023706;28;20192;-45
2024/01/11 07:17:34;;;;;;;42.50;24.50;;;1.80;99.90;;;;;;5023954;28;20192;-44
2024/01/11 07:20:00;;;;;;;46.33;25.83;;;1.80;99.90;;;;;;5019763;28;20204;-46
2024/01/11 07:22:25;;;;;;;45.10;26.30;;;1.80;99.90;;;;;;5024054;28;20222;-44
2024/01/11 07:24:52;;;;;;;42.42;25.10;;;1.80;99.90;;;;;;5019572;28;20203;-44
2024/01/11 07:27:18;;;;;;;45.95;26.20;;;1.80;99.90;;;;;;5024521;28;20223;-45
2024/01/11 07:29:44;;;;;;;42.47;25.67;;;1.80;99.90;;;;;;5000302;28;20303;-44
2024/01/11 07:32:09;;;;;;;44.67;24.90;;;1.80;99.90;;;;;;5024268;28;20283;-44
2024/01/11 07:34:36;;;;;;;50.90;25.35;;;1.90;99.90;;;;;;5023615;28;20196;-44
2024/01/11 07:37:02;;;;;;;46.42;25.77;;;1.90;99.90;;;;;;5023909;28;20187;-51
2024/01/11 07:39:29;;;;;;;45.08;25.33;;;1.90;99.90;;;;;;5024090;28;20560;-45
2024/01/11 07:41:55;;;;;;;48.40;27.02;;;1.90;99.90;;;;;;5019033;28;20656;-45
2024/01/11 07:44:21;;;;;;;48.42;26.52;;;2.00;99.90;;;;;;5018586;28;20184;-46
2024/01/11 07:46:47;;;;;;;47.42;26.73;;;2.00;99.90;;;;;;5022739;28;20196;-44
2024/01/11 07:49:13;;;;;;;45.13;26.55;;;2.00;99.90;;;;;;5023920;28;20280;-50
2024/01/11 07:51:39;;;;;;;47.83;27.00;;;2.00;99.90;;;;;;5023880;28;21110;-46
2024/01/11 07:54:05;;;;;;;48.53;27.45;;;2.00;99.90;;;;;;5023872;28;21937;-48
2024/01/11 07:56:31;;;;;;;49.97;28.40;;;2.10;99.90;;;;;;5023566;28;20188;-50
2024/01/11 07:58:56;;;;;;;47.50;27.40;;;2.10;99.90;;;;;;5022833;28;20559;-45
2024/01/11 08:01:22;;;;;;;46.72;25.70;;;2.10;99.90;;;;;;5022846;28;20273;-43
2024/01/11 08:03:51;;;;;;;47.15;27.75;;;2.10;99.90;;;;;;4990775;28;20279;-49
2024/01/11 08:06:18;;;;;;;46.35;26.58;;;2.20;99.90;;;;;;5000494;28;20180;-43
2024/01/11 08:08:44;;;;;;;47.20;27.15;;;2.20;99.90;;;;;;5019545;28;20786;-48
2024/01/11 08:11:13;;;;;;;45.50;26.13;;;2.20;99.90;;;;;;4986648;28;20188;-44
2024/01/11 08:13:38;;;;;;;47.50;27.77;;;2.20;99.90;;;;;;5022624;28;20234;-47
2024/01/11 08:16:08;;;;;;;46.17;26.40;;;2.30;99.90;;;;;;5022275;28;20191;-46
2024/01/11 08:18:35;;;;;;;49.67;28.52;;;2.30;99.90;;;;;;5023244;28;20271;-42
2024/01/11 08:21:01;;;;;;;52.17;29.40;;;2.30;99.90;;;;;;5022775;28;20578;-44
2024/01/11 08:23:27;;;;;;;46.45;27.02;;;2.30;99.90;;;;;;5023641;28;20187;-48
2024/01/11 08:25:53;;;;;;;50.95;28.60;;;2.40;99.90;;;;;;4984776;28;20227;-45
2024/01/11 08:28:20;;;;;;;57.30;30.15;;;2.40;99.90;;;;;;5022817;28;20821;-44
2024/01/11 08:30:46;;;;;;;55.78;31.13;;;2.40;99.90;;;;;;5022329;28;20664;-45
2024/01/11 08:33:12;;;;;;;53.42;29.40;;;2.40;99.90;;;;;;5023409;28;20202;-42
2024/01/11 08:35:40;;;;;;;54.88;29.42;;;2.40;99.90;;;;;;5022987;28;20531;-46
2024/01/11 08:38:06;;;;;;;65.85;39.03;;;2.40;99.90;;;;;;5018526;28;20191;-45
2024/01/11 08:40:32;;;;;;;54.22;30.08;;;2.40;99.90;;;;;;5015711;28;20215;-46
2024/01/11 08:42:59;;;;;;;51.70;29.15;;;2.50;99.90;;;;;;5021877;28;20660;-49
2024/01/11 08:45:25;;;;;;;49.70;29.08;;;2.50;99.90;;;;;;5022976;28;20318;-45
2024/01/11 08:47:51;;;;;;;46.85;28.98;;;2.50;99.90;;;;;;5017696;28;20195;-46
2024/01/11 08:50:17;;;;;;;54.15;29.58;;;2.60;99.90;;;;;;5022428;28;20381;-43
2024/01/11 08:52:43;;;;;;;50.65;27.98;;;2.60;99.90;;;;;;5022328;28;20227;-43
2024/01/11 08:55:09;;;;;;;46.33;28.05;;;2.70;99.90;;;;;;5023292;28;20195;-46
2024/01/11 08:57:35;;;;;;;49.85;28.13;;;2.70;99.90;;;;;;5020277;28;20216;-46
2024/01/11 09:00:08;;;;;;;49.13;28.27;;;2.70;99.90;;;;;;5023125;28;20657;-39
2024/01/11 09:02:35;;;;;;;49.13;27.60;;;2.70;99.90;;;;;;5000446;28;20176;-40
2024/01/11 09:05:02;;;;;;;49.42;28.38;;;2.70;99.90;;;;;;5022567;28;20211;-46
2024/01/11 09:07:28;;;;;;;44.03;26.95;;;2.80;99.90;;;;;;5022357;28;20795;-48
2024/01/11 09:09:54;;;;;;;46.78;26.10;;;2.80;99.90;;;;;;5022823;28;20207;-42
2024/01/11 09:12:20;;;;;;;47.95;28.33;;;2.80;99.90;;;;;;5021963;28;20214;-42
2024/01/11 09:14:46;;;;;;;44.03;27.10;;;2.80;99.90;;;;;;5021823;28;20200;-47
2024/01/11 09:17:12;;;;;;;47.35;27.42;;;2.90;99.90;;;;;;5001196;28;20325;-47
2024/01/11 09:19:39;;;;;;;45.15;27.63;;;2.90;99.90;;;;;;5015408;28;20190;-48
2024/01/11 09:22:05;;;;;;;46.85;27.13;;;2.90;99.90;;;;;;5021713;28;20307;-43
2024/01/11 09:24:31;;;;;;;46.20;28.08;;;2.90;99.90;;;;;;5022579;28;20704;-43
2024/01/11 09:26:57;;;;;;;45.83;26.38;;;2.90;99.90;;;;;;5015307;28;20191;-42
2024/01/11 09:29:23;;;;;;;46.17;26.83;;;3.00;99.90;;;;;;5021865;28;20245;-43
2024/01/11 09:31:49;;;;;;;46.45;27.48;;;3.00;99.90;;;;;;5021726;28;20279;-43
2024/01/11 09:34:15;;;;;;;52.75;28.08;;;3.00;99.90;;;;;;5016094;28;20232;-43
2024/01/11 09:36:41;;;;;;;45.55;27.05;;;3.10;99.90;;;;;;5021425;28;20183;-50
2024/01/11 09:39:08;;;;;;;42.95;27.15;;;3.20;99.90;;;;;;5018123;28;20200;-42
2024/01/11 09:41:36;;;;;;;44.05;27.27;;;3.20;99.90;;;;;;5021846;28;20970;-48
2024/01/11 09:44:05;;;;;;;46.90;26.90;;;3.30;99.90;;;;;;5007820;28;20474;-43
2024/01/11 09:46:32;;;;;;;45.25;26.77;;;3.30;99.90;;;;;;5021720;28;20203;-48
2024/01/11 09:49:00;;;;;;;42.35;26.30;;;3.40;99.90;;;;;;5021294;28;20656;-43
2024/01/11 09:51:28;;;;;;;40.75;24.33;;;3.40;99.90;;;;;;5021964;28;20224;-45
2024/01/11 09:53:56;;;;;;;41.55;24.80;;;3.40;99.90;;;;;;5021623;28;20274;-39
2024/01/11 09:56:23;;;;;;;39.53;23.73;;;3.50;99.90;;;;;;5015076;28;20188;-46
2024/01/11 09:58:50;;;;;;;40.10;25.25;;;3.60;99.90;;;;;;5021904;28;21737;-53
2024/01/11 10:01:17;;;;;;;37.83;23.48;;;3.60;99.90;;;;;;5021547;28;20369;-43
2024/01/11 10:03:46;;;;;;;36.05;23.02;;;3.60;99.90;;;;;;5014637;28;20199;-45
2024/01/11 10:06:13;;;;;;;42.08;23.95;;;3.70;99.90;;;;;;5020521;28;20207;-48
2024/01/11 10:08:39;;;;;;;43.88;23.95;;;3.70;99.90;;;;;;5021501;28;20974;-43
2024/01/11 10:11:05;;;;;;;40.05;23.55;;;3.70;99.90;;;;;;5021057;28;20207;-40
2024/01/11 10:13:32;;;;;;;39.97;23.60;;;3.70;99.90;;;;;;5021578;28;20203;-47
2024/01/11 10:16:09;;;;;;;45.72;24.98;;;3.70;99.90;;;;;;5016143;28;20223;-46
2024/01/11 10:18:36;;;;;;;46.20;26.33;;;3.80;99.90;;;;;;5014373;28;20200;-43
2024/01/11 10:21:03;;;;;;;47.38;25.58;;;3.80;99.90;;;;;;5021260;28;20199;-44
2024/01/11 10:23:29;;;;;;;40.72;24.13;;;3.80;99.90;;;;;;5020866;28;20192;-44
2024/01/11 10:25:58;;;;;;;45.80;24.67;;;3.80;99.90;;;;;;5012348;28;20249;-40
2024/01/11 10:28:27;;;;;;;43.55;25.85;;;3.80;99.90;;;;;;5021263;28;20211;-44
2024/01/11 10:30:55;;;;;;;40.88;24.40;;;3.80;99.90;;;;;;5020580;28;20302;-47
2024/01/11 10:33:22;;;;;;;45.17;25.25;;;3.90;99.90;;;;;;5021081;28;20187;-45
2024/01/11 10:35:49;;;;;;;42.78;24.92;;;3.80;99.90;;;;;;5020874;28;20187;-46
2024/01/11 10:38:16;;;;;;;44.65;26.10;;;3.90;99.90;;;;;;5021709;28;20184;-46
2024/01/11 10:40:43;;;;;;;45.20;26.67;;;3.90;99.90;;;;;;5017596;28;20215;-43
2024/01/11 10:43:15;;;;;;;42.42;25.60;;;3.80;99.90;;;;;;5020908;28;20629;-47
2024/01/11 10:45:42;;;;;;;42.45;25.55;;;3.90;99.90;;;;;;5014605;28;20197;-41
2024/01/11 10:48:16;;;;;;;48.83;26.10;;;3.90;99.90;;;;;;5021022;28;20184;-42
2024/01/11 10:50:43;;;;;;;38.20;22.92;;;3.90;99.90;;;;;;5021400;28;20898;-44
2024/01/11 10:53:28;;;;;;;41.80;24.50;;;3.90;99.90;;;;;;5021531;28;20309;-43
2024/01/11 10:55:56;;;;;;;41.67;23.55;;;3.90;99.90;;;;;;5021305;28;20196;-46
2024/01/11 10:58:26;;;;;;;48.20;25.70;;;3.90;99.90;;;;;;5021025;28;20196;-53
2024/01/11 11:00:56;;;;;;;41.38;23.95;;;3.90;99.90;;;;;;5020974;28;20323;-50
2024/01/11 11:03:26;;;;;;;41.20;24.73;;;3.90;99.90;;;;;;5021246;28;20187;-50
2024/01/11 11:05:55;;;;;;;39.85;24.27;;;3.90;99.90;;;;;;5020676;28;20199;-52
2024/01/11 11:08:23;;;;;;;46.60;25.35;;;3.90;99.90;;;;;;5021032;28;20180;-46
2024/01/11 11:10:54;;;;;;;45.58;24.77;;;3.90;99.90;;;;;;5020055;28;20200;-46
2024/01/11 11:13:21;;;;;;;45.75;25.10;;;3.90;99.90;;;;;;5015014;28;20211;-46
2024/01/11 11:15:48;;;;;;;48.00;28.13;;;3.90;99.90;;;;;;5020523;28;20275;-50
2024/01/11 11:18:15;;;;;;;43.40;25.52;;;3.90;99.90;;;;;;5020462;28;20199;-45
2024/01/11 11:20:43;;;;;;;39.95;24.95;;;3.90;99.90;;;;;;5016379;28;20215;-52
2024/01/11 11:23:11;;;;;;;42.75;24.45;;;3.90;99.90;;;;;;5021018;28;20180;-47
2024/01/11 11:25:38;;;;;;;42.00;24.02;;;3.90;99.90;;;;;;5020838;28;20913;-47
2024/01/11 11:28:05;;;;;;;44.40;24.88;;;3.90;99.90;;;;;;5020623;28;20211;-50
2024/01/11 11:30:31;;;;;;;42.88;25.80;;;3.90;99.90;;;;;;5020981;28;20192;-41
2024/01/11 11:32:57;;;;;;;40.13;24.05;;;3.90;99.90;;;;;;5020530;28;20199;-44
2024/01/11 11:35:24;;;;;;;44.47;24.92;;;4.00;99.90;;;;;;5020125;28;20188;-47
2024/01/11 11:37:56;;;;;;;39.88;24.50;;;4.00;99.90;;;;;;5020570;28;20262;-48
2024/01/11 11:40:42;;;;;;;41.35;24.40;;;4.10;99.90;;;;;;5016894;28;20294;-42
2024/01/11 11:43:09;;;;;;;42.00;24.65;;;4.10;99.90;;;;;;5021239;28;20202;-44
2024/01/11 11:45:35;;;;;;;42.72;25.33;;;4.10;99.90;;;;;;5024143;28;20187;-45
2024/01/11 11:48:22;;;;;;;44.25;24.52;;;4.10;99.90;;;;;;5019898;28;20627;-49
2024/01/11 11:50:48;;;;;;;42.08;24.75;;;4.10;99.90;;;;;;5020214;28;20192;-51
2024/01/11 11:53:16;;;;;;;39.85;24.63;;;4.20;99.90;;;;;;5023564;28;20219;-44
2024/01/11 11:55:41;;;;;;;40.08;24.05;;;4.20;99.90;;;;;;5024149;28;20350;-46
2024/01/11 11:58:07;;;;;;;36.47;22.98;;;4.20;99.90;;;;;;5023877;28;20663;-47
2024/01/11 12:00:34;;;;;;;37.92;23.67;;;4.20;99.90;;;;;;5002408;28;20582;-46
2024/01/11 12:03:03;;;;;;;40.60;23.10;;;4.20;99.90;;;;;;5023578;28;20766;-46
2024/01/11 12:05:29;;;;;;;42.10;24.35;;;4.30;99.90;;;;;;5023809;28;20675;-42
2024/01/11 12:07:55;;;;;;;44.05;23.83;;;4.30;99.90;;;;;;5018520;28;20192;-46
2024/01/11 12:10:21;;;;;;;42.50;23.65;;;4.30;99.90;;;;;;5023263;28;20188;-47
2024/01/11 12:12:48;;;;;;;39.40;24.10;;;4.20;99.90;;;;;;5023467;28;20214;-45
2024/01/11 12:15:13;;;;;;;42.70;23.45;;;4.30;99.90;;;;;;5023303;28;20196;-41
2024/01/11 12:17:42;;;;;;;52.40;27.50;;;4.30;99.90;;;;;;5023355;28;20191;-41
2024/01/11 12:20:08;;;;;;;48.38;25.10;;;4.30;99.90;;;;;;5018262;28;20241;-43
2024/01/11 12:22:34;;;;;;;42.92;23.33;;;4.30;99.90;;;;;;5017372;28;20211;-46
2024/01/11 12:25:01;;;;;;;41.30;23.85;;;4.30;99.90;;;;;;5019510;28;20184;-46
2024/01/11 12:27:28;;;;;;;40.92;23.98;;;4.30;99.90;;;;;;5023264;28;20187;-43
2024/01/11 12:29:54;;;;;;;54.00;24.30;;;4.30;99.90;;;;;;5023613;28;20187;-45